Time;durP1;ratioP1;P1;durP2;ratioP2;P2;SDS_P1;SDS_P2;PMS_P1;PMS_P2;Temp;Humidity;BMP_temperature;BMP_pressure;BME280_temperature;BME280_humidity;BME280_pressure;Samples;Min_cycle;Max_cycle;Signal;HPM_P1;HPM_P2
2022/03/28 00:01:15;;;;;;;16.65;8.73;;;;;;;-139.48;100.00;61774.03;5036071;28;20159;-69
2022/03/28 00:04:00;;;;;;;13.55;8.93;;;;;;;-139.48;100.00;61774.03;5035769;28;20045;-70
2022/03/28 00:06:44;;;;;;;17.83;8.93;;;;;;;-139.48;100.00;61774.03;5020864;28;20052;-69
2022/03/28 00:09:28;;;;;;;17.48;8.25;;;;;;;-139.48;100.00;61774.03;5020906;28;20048;-70
2022/03/28 00:12:12;;;;;;;11.32;7.60;;;;;;;-139.48;100.00;61774.03;5035467;28;20092;-69
2022/03/28 00:14:56;;;;;;;15.07;7.55;;;;;;;-139.48;100.00;61774.03;5035787;28;20051;-69
2022/03/28 00:17:39;;;;;;;15.00;8.25;;;;;;;-139.48;100.00;61774.03;5020774;28;20052;-70
2022/03/28 00:20:24;;;;;;;13.20;8.68;;;;;;;-139.48;100.00;61774.03;5020889;28;20133;-69
2022/03/28 00:23:08;;;;;;;14.60;8.07;;;;;;;-139.48;100.00;61774.03;5035295;28;20516;-70
2022/03/28 00:25:52;;;;;;;16.88;8.32;;;;;;;-139.48;100.00;61774.03;5020516;28;20576;-69
2022/03/28 00:28:36;;;;;;;14.10;8.27;;;;;;;-139.48;100.00;61774.03;5020436;28;20152;-70
2022/03/28 00:31:20;;;;;;;12.00;7.82;;;;;;;-139.48;100.00;61774.03;5020658;28;20512;-70
2022/03/28 00:34:04;;;;;;;18.02;9.43;;;;;;;-139.48;100.00;61774.03;5034663;28;20052;-69
2022/03/28 00:36:50;;;;;;;13.63;8.45;;;;;;;-139.48;100.00;61774.03;5020339;28;20476;-69
2022/03/28 00:39:33;;;;;;;17.92;8.68;;;;;;;-139.48;100.00;61774.03;5020711;28;20111;-70
2022/03/28 00:42:17;;;;;;;15.73;9.00;;;;;;;-139.48;100.00;61774.03;5020292;28;20044;-69
2022/03/28 00:45:01;;;;;;;15.43;9.23;;;;;;;-139.48;100.00;61774.03;5006131;28;20056;-70
2022/03/28 00:47:46;;;;;;;18.67;10.25;;;;;;;-139.48;100.00;61774.03;5034798;28;20084;-69
2022/03/28 00:50:31;;;;;;;11.27;7.85;;;;;;;-139.48;100.00;61774.03;5020080;28;20570;-69
2022/03/28 00:53:16;;;;;;;16.27;8.07;;;;;;;-139.48;100.00;61774.03;5020242;28;20047;-69
2022/03/28 00:56:00;;;;;;;16.90;8.52;;;;;;;-139.48;100.00;61774.03;5019817;28;20516;-69
2022/03/28 00:58:46;;;;;;;13.43;8.05;;;;;;;-139.48;100.00;61774.03;5019998;28;20052;-69
2022/03/28 01:01:30;;;;;;;14.27;8.38;;;;;;;-139.48;100.00;61774.03;5019659;28;20174;-69
2022/03/28 01:04:14;;;;;;;13.68;8.07;;;;;;;-139.48;100.00;61774.03;5005828;28;20056;-70
2022/03/28 01:06:58;;;;;;;17.65;9.25;;;;;;;-139.48;100.00;61774.03;5019784;28;20115;-69
2022/03/28 01:09:42;;;;;;;12.75;8.55;;;;;;;-139.48;100.00;61774.03;5019764;28;20048;-69
2022/03/28 01:12:26;;;;;;;10.75;7.07;;;;;;;-139.48;100.00;61774.03;5019263;28;20121;-70
2022/03/28 01:15:12;;;;;;;16.00;8.63;;;;;;;-139.48;100.00;61774.03;5019707;28;20056;-69
2022/03/28 01:18:11;;;;;;;13.98;9.00;;;;;;;-139.48;100.00;61774.03;5019691;28;20049;-70
2022/03/28 01:20:56;;;;;;;13.50;8.57;;;;;;;-139.48;100.00;61774.03;5021518;28;20076;-70
2022/03/28 01:23:40;;;;;;;13.07;8.70;;;;;;;-139.48;100.00;61774.03;5019181;28;20107;-69
2022/03/28 01:26:24;;;;;;;15.40;9.38;;;;;;;-139.48;100.00;61774.03;5019111;28;20052;-69
2022/03/28 01:29:08;;;;;;;15.07;9.32;;;;;;;-139.48;100.00;61774.03;5019119;28;20531;-69
2022/03/28 01:31:52;;;;;;;16.63;9.70;;;;;;;-139.48;100.00;61774.03;5019272;28;20099;-69
2022/03/28 01:34:37;;;;;;;16.38;10.13;;;;;;;-139.48;100.00;61774.03;5034280;28;20052;-70
2022/03/28 01:37:21;;;;;;;17.17;8.95;;;;;;;-139.48;100.00;61774.03;5019355;28;20576;-69
2022/03/28 01:40:06;;;;;;;14.52;8.98;;;;;;;-139.48;100.00;61774.03;5033884;28;20555;-70
2022/03/28 01:42:49;;;;;;;18.63;9.93;;;;;;;-139.48;100.00;61774.03;5004975;28;20432;-70
2022/03/28 01:45:33;;;;;;;13.88;8.70;;;;;;;-139.48;100.00;61774.03;5033958;28;20057;-70
2022/03/28 01:48:18;;;;;;;17.40;11.13;;;;;;;-139.48;100.00;61774.03;5018855;28;20056;-69
2022/03/28 01:51:02;;;;;;;21.13;10.95;;;;;;;-139.48;100.00;61774.03;5033969;28;20049;-70
2022/03/28 01:53:46;;;;;;;21.35;11.50;;;;;;;-139.48;100.00;61774.03;5019030;28;20053;-70
2022/03/28 01:56:34;;;;;;;15.90;9.20;;;;;;;-139.48;100.00;61774.03;5018653;28;20479;-69
2022/03/28 01:59:18;;;;;;;16.17;10.02;;;;;;;-139.48;100.00;61774.03;5005080;28;20187;-70
2022/03/28 02:02:02;;;;;;;17.88;10.25;;;;;;;-139.48;100.00;61774.03;5004679;28;20183;-70
2022/03/28 02:04:46;;;;;;;15.70;9.18;;;;;;;-139.48;100.00;61774.03;5004901;28;20580;-69
2022/03/28 02:07:30;;;;;;;19.65;10.25;;;;;;;-139.48;100.00;61774.03;5004553;28;20055;-70
2022/03/28 02:10:17;;;;;;;19.25;9.65;;;;;;;-139.48;100.00;61774.03;5004889;28;20045;-69
2022/03/28 02:13:01;;;;;;;18.90;10.02;;;;;;;-139.48;100.00;61774.03;5018365;28;20072;-70
2022/03/28 02:15:45;;;;;;;16.85;9.65;;;;;;;-139.48;100.00;61774.03;5004836;28;20076;-69
2022/03/28 02:18:29;;;;;;;15.35;9.32;;;;;;;-139.48;100.00;61774.03;5033671;28;20096;-69
2022/03/28 02:21:13;;;;;;;20.27;9.50;;;;;;;-139.48;100.00;61774.03;5033816;28;20107;-70
2022/03/28 02:23:56;;;;;;;15.63;9.32;;;;;;;-139.48;100.00;61774.03;5018599;28;20452;-70
2022/03/28 02:26:41;;;;;;;18.13;9.57;;;;;;;-139.48;100.00;61774.03;5033473;28;20416;-69
2022/03/28 02:29:24;;;;;;;19.67;9.57;;;;;;;-139.48;100.00;61774.03;5033513;28;20103;-70
2022/03/28 02:32:09;;;;;;;14.23;9.50;;;;;;;-139.48;100.00;61774.03;5018321;28;20048;-69
2022/03/28 02:34:53;;;;;;;16.33;9.57;;;;;;;-139.48;100.00;61774.03;5018210;28;20167;-70
2022/03/28 02:37:37;;;;;;;15.15;9.15;;;;;;;-139.48;100.00;61774.03;5018200;28;20092;-70
2022/03/28 02:40:20;;;;;;;15.02;9.05;;;;;;;-139.48;100.00;61774.03;5018389;28;20094;-69
2022/03/28 02:43:05;;;;;;;16.77;9.73;;;;;;;-139.48;100.00;61774.03;5033098;28;20051;-69
2022/03/28 02:45:48;;;;;;;16.10;9.70;;;;;;;-139.48;100.00;61774.03;5018034;28;20103;-69
2022/03/28 02:48:32;;;;;;;14.50;9.60;;;;;;;-139.48;100.00;61774.03;5018361;28;20414;-69
2022/03/28 02:51:16;;;;;;;15.38;9.57;;;;;;;-139.48;100.00;61774.03;5018112;28;20107;-70
2022/03/28 02:54:00;;;;;;;17.85;10.18;;;;;;;-139.48;100.00;61774.03;5018274;28;20048;-69
2022/03/28 02:56:44;;;;;;;16.42;10.55;;;;;;;-139.48;100.00;61774.03;5020453;28;20543;-69
2022/03/28 02:59:28;;;;;;;17.15;11.00;;;;;;;-139.48;100.00;61774.03;5021914;28;20052;-69
2022/03/28 03:02:12;;;;;;;20.73;11.80;;;;;;;-139.48;100.00;61774.03;5037077;28;20512;-69
2022/03/28 03:04:57;;;;;;;23.08;14.27;;;;;;;-139.48;100.00;61774.03;5022450;28;20096;-69
2022/03/28 03:07:41;;;;;;;25.60;14.65;;;;;;;-139.48;100.00;61774.03;5022041;28;20052;-69
2022/03/28 03:10:25;;;;;;;;;;;;;;;-139.48;100.00;61774.03;5022430;28;20512;-69
2022/03/28 03:13:09;;;;;;;18.20;10.82;;;;;;;-139.48;100.00;61774.03;5022858;28;19924;-71
2022/03/28 03:15:53;;;;;;;17.77;10.57;;;;;;;-139.48;100.00;61774.03;5021877;28;20520;-71
2022/03/28 03:18:37;;;;;;;17.88;11.45;;;;;;;-139.48;100.00;61774.03;5036837;28;20520;-70
2022/03/28 03:21:21;;;;;;;18.33;11.70;;;;;;;-139.48;100.00;61774.03;5007885;28;20152;-71
2022/03/28 03:24:05;;;;;;;17.92;11.07;;;;;;;-139.48;100.00;61774.03;5021699;28;20504;-70
2022/03/28 03:26:49;;;;;;;18.48;10.57;;;;;;;-139.48;100.00;61774.03;5021541;28;20467;-71
2022/03/28 03:29:36;;;;;;;18.77;10.80;;;;;;;-139.48;100.00;61774.03;5021381;28;20052;-71
2022/03/28 03:32:20;;;;;;;20.45;11.30;;;;;;;-139.48;100.00;61774.03;5021361;28;20052;-71
2022/03/28 03:35:04;;;;;;;20.92;11.40;;;;;;;-139.48;100.00;61774.03;5021363;28;20044;-71
2022/03/28 03:37:50;;;;;;;21.15;12.20;;;;;;;-139.48;100.00;61774.03;5036445;28;20132;-71
2022/03/28 03:40:33;;;;;;;18.25;11.98;;;;;;;-139.48;100.00;61774.03;5021248;28;20099;-71
2022/03/28 03:43:18;;;;;;;17.77;10.45;;;;;;;-139.48;100.00;61774.03;5036042;28;20094;-70
2022/03/28 03:46:01;;;;;;;18.42;10.60;;;;;;;-139.48;100.00;61774.03;5036278;28;20088;-71
2022/03/28 03:48:45;;;;;;;17.85;10.90;;;;;;;-139.48;100.00;61774.03;5021306;28;20049;-71
2022/03/28 03:51:29;;;;;;;21.50;11.10;;;;;;;-139.48;100.00;61774.03;5021116;28;20072;-71
2022/03/28 03:54:13;;;;;;;16.30;10.75;;;;;;;-139.48;100.00;61774.03;5036207;28;20111;-71
2022/03/28 03:56:57;;;;;;;18.58;11.63;;;;;;;-139.48;100.00;61774.03;5007257;28;20115;-71
2022/03/28 03:59:41;;;;;;;21.83;10.93;;;;;;;-139.48;100.00;61774.03;5021095;28;20578;-71
2022/03/28 04:02:25;;;;;;;23.73;11.68;;;;;;;-139.48;100.00;61774.03;5020697;28;20520;-71
2022/03/28 04:05:10;;;;;;;16.83;10.40;;;;;;;-139.48;100.00;61774.03;5035742;28;20524;-70
2022/03/28 04:07:53;;;;;;;22.17;13.40;;;;;;;-139.48;100.00;61774.03;5019742;28;20048;-71
2022/03/28 04:10:38;;;;;;;23.45;12.73;;;;;;;-139.48;100.00;61774.03;5035853;28;20044;-71
2022/03/28 04:13:22;;;;;;;19.63;11.55;;;;;;;-139.48;100.00;61774.03;5035375;28;20417;-71
2022/03/28 04:16:06;;;;;;;20.52;12.25;;;;;;;-139.48;100.00;61774.03;5035538;28;20132;-71
2022/03/28 04:18:50;;;;;;;21.58;13.10;;;;;;;-139.48;100.00;61774.03;5035531;28;20087;-71
2022/03/28 04:21:34;;;;;;;25.48;14.70;;;;;;;-139.48;100.00;61774.03;5020605;28;20048;-71
2022/03/28 04:24:17;;;;;;;19.15;12.52;;;;;;;-139.48;100.00;61774.03;5020650;28;20044;-71
2022/03/28 04:27:02;;;;;;;21.08;12.18;;;;;;;-139.48;100.00;61774.03;5035369;28;20099;-69
2022/03/28 04:29:46;;;;;;;23.67;12.50;;;;;;;-139.48;100.00;61774.03;5035525;28;20548;-71
2022/03/28 04:32:29;;;;;;;21.67;12.95;;;;;;;-139.48;100.00;61774.03;5035434;28;20095;-71
2022/03/28 04:35:14;;;;;;;22.88;12.15;;;;;;;-139.48;100.00;61774.03;5020266;28;20052;-71
2022/03/28 04:37:59;;;;;;;23.33;13.63;;;;;;;-139.48;100.00;61774.03;5020470;28;20127;-70
2022/03/28 04:40:43;;;;;;;24.15;14.18;;;;;;;-139.48;100.00;61774.03;5035311;28;20463;-70
2022/03/28 04:43:27;;;;;;;21.20;11.52;;;;;;;-139.48;100.00;61774.03;5006089;28;20053;-71
2022/03/28 04:46:11;;;;;;;22.30;12.75;;;;;;;-139.48;100.00;61774.03;5006277;28;20052;-71
2022/03/28 04:48:55;;;;;;;25.15;13.50;;;;;;;-139.48;100.00;61774.03;5020222;28;20412;-71
2022/03/28 04:51:39;;;;;;;23.02;13.18;;;;;;;-139.48;100.00;61774.03;5034734;28;20052;-70
2022/03/28 04:54:23;;;;;;;19.88;11.90;;;;;;;-139.48;100.00;61774.03;5020030;28;20124;-71
2022/03/28 04:57:07;;;;;;;21.33;13.13;;;;;;;-139.48;100.00;61774.03;5020051;28;20092;-70
2022/03/28 04:59:51;;;;;;;20.40;12.25;;;;;;;-139.48;100.00;61774.03;5019692;28;20048;-71
2022/03/28 05:02:36;;;;;;;24.30;13.75;;;;;;;-139.48;100.00;61774.03;5034650;28;20064;-71
2022/03/28 05:05:20;;;;;;;25.80;13.40;;;;;;;-139.48;100.00;61774.03;5019916;28;20115;-71
2022/03/28 05:08:04;;;;;;;21.65;13.35;;;;;;;-139.48;100.00;61774.03;5019511;28;20048;-71
2022/03/28 05:10:49;;;;;;;23.25;13.25;;;;;;;-139.48;100.00;61774.03;5034441;28;20546;-71
2022/03/28 05:13:33;;;;;;;24.40;13.15;;;;;;;-139.48;100.00;61774.03;5005423;28;20053;-71
2022/03/28 05:16:17;;;;;;;25.52;13.95;;;;;;;-139.48;100.00;61774.03;5019691;28;20460;-70
2022/03/28 05:19:02;;;;;;;25.23;14.88;;;;;;;-139.48;100.00;61774.03;5019584;28;20060;-71
2022/03/28 05:21:46;;;;;;;22.67;13.40;;;;;;;-139.48;100.00;61774.03;5019328;28;20048;-71
2022/03/28 05:24:30;;;;;;;23.42;13.35;;;;;;;-139.48;100.00;61774.03;5034489;28;20048;-70
2022/03/28 05:27:15;;;;;;;25.08;13.20;;;;;;;-139.48;100.00;61774.03;5019465;28;20048;-71
2022/03/28 05:29:59;;;;;;;23.02;13.23;;;;;;;-139.48;100.00;61774.03;5034433;28;20076;-71
2022/03/28 05:32:43;;;;;;;36.60;13.20;;;;;;;-139.48;100.00;61774.03;5019030;28;20555;-70
2022/03/28 05:35:27;;;;;;;22.13;13.15;;;;;;;-139.48;100.00;61774.03;5019310;28;20090;-70
2022/03/28 05:38:12;;;;;;;25.45;14.25;;;;;;;-139.48;100.00;61774.03;5019351;28;20124;-71
2022/03/28 05:40:57;;;;;;;24.92;13.85;;;;;;;-139.48;100.00;61774.03;5018994;28;20104;-71
2022/03/28 05:43:41;;;;;;;20.02;12.40;;;;;;;-139.48;100.00;61774.03;5019444;28;20064;-70
2022/03/28 05:46:25;;;;;;;22.17;13.50;;;;;;;-139.48;100.00;61774.03;5018751;28;20045;-71
2022/03/28 05:49:08;;;;;;;24.77;14.02;;;;;;;-139.48;100.00;61774.03;5034072;28;20459;-71
2022/03/28 05:51:53;;;;;;;25.38;13.90;;;;;;;-139.48;100.00;61774.03;5033869;28;20060;-70
2022/03/28 05:54:37;;;;;;;25.67;14.05;;;;;;;-139.48;100.00;61774.03;5019178;28;20052;-71
2022/03/28 05:57:21;;;;;;;22.90;12.88;;;;;;;-139.48;100.00;61774.03;5018937;28;20060;-71
2022/03/28 06:00:07;;;;;;;27.27;14.38;;;;;;;-139.48;100.00;61774.03;5033896;28;20047;-71
2022/03/28 06:02:51;;;;;;;24.17;14.30;;;;;;;-139.48;100.00;61774.03;5033817;28;20103;-71
2022/03/28 06:05:38;;;;;;;23.70;14.00;;;;;;;-139.48;100.00;61774.03;5018752;28;20259;-71
2022/03/28 06:08:22;;;;;;;21.15;13.27;;;;;;;-139.48;100.00;61774.03;5018844;28;20140;-70
2022/03/28 06:11:06;;;;;;;24.63;14.13;;;;;;;-139.48;100.00;61774.03;5018913;28;20056;-71
2022/03/28 06:13:50;;;;;;;24.17;15.57;;;;;;;-139.48;100.00;61774.03;5018582;28;20056;-70
2022/03/28 06:16:35;;;;;;;29.65;16.10;;;;;;;-139.48;100.00;61774.03;5004810;28;20048;-71
2022/03/28 06:19:19;;;;;;;23.52;14.40;;;;;;;-139.48;100.00;61774.03;5018398;28;20095;-71
2022/03/28 06:22:03;;;;;;;22.88;14.07;;;;;;;-139.48;100.00;61774.03;5033490;28;20071;-70
2022/03/28 06:24:47;;;;;;;24.10;14.30;;;;;;;-139.48;100.00;61774.03;5018435;28;20516;-71
2022/03/28 06:27:31;;;;;;;21.17;13.40;;;;;;;-139.48;100.00;61774.03;5018453;28;20508;-71
2022/03/28 06:30:15;;;;;;;27.20;14.35;;;;;;;-139.48;100.00;61774.03;5018037;28;20049;-71
2022/03/28 06:32:59;;;;;;;26.80;14.77;;;;;;;-139.48;100.00;61774.03;5018433;28;20099;-71
2022/03/28 06:35:45;;;;;;;26.88;14.00;;;;;;;-139.48;100.00;61774.03;5018437;28;20460;-71
2022/03/28 06:38:29;;;;;;;25.35;14.70;;;;;;;-139.48;100.00;61774.03;5033442;28;20500;-71
2022/03/28 06:41:14;;;;;;;25.33;14.70;;;;;;;-139.48;100.00;61774.03;5018363;28;20053;-71
2022/03/28 06:43:58;;;;;;;28.83;15.52;;;;;;;-139.48;100.00;61774.03;5033485;28;20056;-71
2022/03/28 06:46:44;;;;;;;20.75;13.02;;;;;;;-139.48;100.00;61774.03;5018096;28;20156;-71
2022/03/28 06:49:29;;;;;;;27.08;15.60;;;;;;;-139.48;100.00;61774.03;5033325;28;20095;-71
2022/03/28 06:52:13;;;;;;;22.80;13.35;;;;;;;-139.48;100.00;61774.03;5032924;28;20088;-71
2022/03/28 06:54:57;;;;;;;;;;;;;;;-139.48;100.00;61774.03;5033398;28;20052;-71
2022/03/28 06:57:41;;;;;;;30.35;15.65;;;;;;;-139.48;100.00;61774.03;5018179;28;19966;-71
2022/03/28 07:00:24;;;;;;;21.92;13.77;;;;;;;-139.48;100.00;61774.03;5018216;28;20055;-71
2022/03/28 07:03:08;;;;;;;27.30;16.33;;;;;;;-139.48;100.00;61774.03;5017919;28;20113;-70
2022/03/28 07:05:52;;;;;;;32.55;15.77;;;;;;;-139.48;100.00;61774.03;5018141;28;20555;-71
2022/03/28 07:08:36;;;;;;;23.50;14.38;;;;;;;-139.48;100.00;61774.03;5033133;28;20183;-71
2022/03/28 07:11:20;;;;;;;27.50;15.15;;;;;;;-139.48;100.00;61774.03;5032694;28;20508;-71
2022/03/28 07:14:04;;;;;;;31.20;16.75;;;;;;;-139.48;100.00;61774.03;5033106;28;20053;-71
2022/03/28 07:16:48;;;;;;;26.33;15.25;;;;;;;-139.48;100.00;61774.03;5018084;28;20099;-71
2022/03/28 07:19:32;;;;;;;24.17;14.85;;;;;;;-139.48;100.00;61774.03;5032903;28;20048;-71
2022/03/28 07:22:16;;;;;;;25.33;14.73;;;;;;;-139.48;100.00;61774.03;5032627;28;20048;-71
2022/03/28 07:25:00;;;;;;;27.33;15.52;;;;;;;-139.48;100.00;61774.03;5017966;28;20056;-70
2022/03/28 07:27:45;;;;;;;24.30;14.52;;;;;;;-139.48;100.00;61774.03;5017631;28;20048;-70
2022/03/28 07:30:29;;;;;;;28.23;14.52;;;;;;;-139.48;100.00;61774.03;5017676;28;20048;-70
2022/03/28 07:33:13;;;;;;;27.15;15.18;;;;;;;-139.48;100.00;61774.03;5033066;28;20076;-71
2022/03/28 07:35:57;;;;;;;26.63;14.85;;;;;;;-139.48;100.00;61774.03;5032851;28;20044;-71
2022/03/28 07:38:41;;;;;;;25.38;14.80;;;;;;;-139.48;100.00;61774.03;5033122;28;20052;-71
2022/03/28 07:41:24;;;;;;;20.08;13.82;;;;;;;-139.48;100.00;61774.03;5032775;28;20124;-70
2022/03/28 07:44:08;;;;;;;26.48;16.00;;;;;;;-139.48;100.00;61774.03;5021336;28;20535;-70
2022/03/28 07:46:52;;;;;;;25.85;14.98;;;;;;;-139.48;100.00;61774.03;5036286;28;20051;-71
2022/03/28 07:49:39;;;;;;;30.45;15.48;;;;;;;-139.48;100.00;61774.03;5036531;28;20508;-71
2022/03/28 07:52:23;;;;;;;26.35;15.02;;;;;;;-139.48;100.00;61774.03;5035974;28;20088;-71
2022/03/28 07:55:09;;;;;;;26.15;14.65;;;;;;;-139.48;100.00;61774.03;5035837;28;20095;-71
2022/03/28 07:57:53;;;;;;;24.02;13.88;;;;;;;-139.48;100.00;61774.03;5035887;28;20067;-70
2022/03/28 08:00:37;;;;;;;29.70;14.90;;;;;;;-139.48;100.00;61774.03;5036373;28;20091;-71
2022/03/28 08:03:21;;;;;;;23.60;14.88;;;;;;;-139.48;100.00;61774.03;5020754;28;20520;-71
2022/03/28 08:06:05;;;;;;;22.08;12.20;;;;;;;-139.48;100.00;61774.03;5021146;28;20508;-71
2022/03/28 08:08:49;;;;;;;24.80;14.15;;;;;;;-139.48;100.00;61774.03;5020655;28;20125;-71
2022/03/28 08:11:34;;;;;;;24.02;13.95;;;;;;;-139.48;100.00;61774.03;5035622;28;20118;-70
2022/03/28 08:14:18;;;;;;;24.83;14.20;;;;;;;-139.48;100.00;61774.03;5007070;28;20044;-71
2022/03/28 08:17:03;;;;;;;19.67;13.43;;;;;;;-139.48;100.00;61774.03;5035509;28;20057;-71
2022/03/28 08:19:47;;;;;;;23.45;13.48;;;;;;;-139.48;100.00;61774.03;5035642;28;20425;-71
2022/03/28 08:22:31;;;;;;;20.80;13.27;;;;;;;-139.48;100.00;61774.03;5020476;28;20420;-71
2022/03/28 08:25:16;;;;;;;25.48;14.80;;;;;;;-139.48;100.00;61774.03;5020146;28;20053;-71
2022/03/28 08:28:00;;;;;;;22.65;13.38;;;;;;;-139.48;100.00;61774.03;5035350;28;20052;-71
2022/03/28 08:30:44;;;;;;;22.60;12.98;;;;;;;-139.48;100.00;61774.03;5020468;28;20472;-71
2022/03/28 08:33:28;;;;;;;26.90;13.73;;;;;;;-139.48;100.00;61774.03;5035395;28;20409;-71
2022/03/28 08:36:12;;;;;;;25.33;13.93;;;;;;;-139.48;100.00;61774.03;5035141;28;20467;-71
2022/03/28 08:38:56;;;;;;;24.27;15.23;;;;;;;-139.48;100.00;61774.03;5020073;28;20052;-71
2022/03/28 08:41:40;;;;;;;24.25;13.95;;;;;;;-139.48;100.00;61774.03;5035165;28;20413;-71
2022/03/28 08:44:26;;;;;;;20.30;13.38;;;;;;;-139.48;100.00;61774.03;5020041;28;20056;-71
2022/03/28 08:47:11;;;;;;;26.08;14.32;;;;;;;-139.48;100.00;61774.03;5020387;28;20515;-71
2022/03/28 08:49:55;;;;;;;25.40;14.63;;;;;;;-139.48;100.00;61774.03;5020166;28;20049;-71
2022/03/28 08:52:41;;;;;;;22.13;14.27;;;;;;;-139.48;100.00;61774.03;5019782;28;20098;-71
2022/03/28 08:55:25;;;;;;;21.88;14.60;;;;;;;-139.48;100.00;61774.03;5019566;28;20420;-71
2022/03/28 08:58:10;;;;;;;22.83;14.25;;;;;;;-139.48;100.00;61774.03;5035002;28;20099;-71
2022/03/28 09:00:55;;;;;;;18.95;13.30;;;;;;;-139.48;100.00;61774.03;5019912;28;20152;-71
2022/03/28 09:03:41;;;;;;;25.35;14.48;;;;;;;-139.48;100.00;61774.03;5034468;28;20056;-72
2022/03/28 09:06:28;;;;;;;21.55;12.68;;;;;;;-139.48;100.00;61774.03;5019636;28;20048;-71
2022/03/28 09:09:13;;;;;;;23.40;13.07;;;;;;;-139.48;100.00;61774.03;5034773;28;20125;-71
2022/03/28 09:12:05;;;;;;;22.38;13.95;;;;;;;-139.48;100.00;61774.03;5034405;28;20051;-71
2022/03/28 09:14:55;;;;;;;22.48;14.13;;;;;;;-139.48;100.00;61774.03;5035788;28;20052;-71
2022/03/28 09:17:40;;;;;;;19.02;12.80;;;;;;;-139.48;100.00;61774.03;5019876;28;20455;-71
2022/03/28 09:20:25;;;;;;;20.90;12.20;;;;;;;-139.48;100.00;61774.03;5019323;28;20060;-70
2022/03/28 09:23:37;;;;;;;26.08;14.77;;;;;;;-139.48;100.00;61774.03;5034378;28;20129;-70
2022/03/28 09:26:24;;;;;;;24.73;14.45;;;;;;;-139.48;100.00;61774.03;5019089;28;20055;-71
2022/03/28 09:29:08;;;;;;;27.60;14.55;;;;;;;-139.48;100.00;61774.03;5005257;28;20052;-71
2022/03/28 09:31:52;;;;;;;24.90;14.32;;;;;;;-139.48;100.00;61774.03;5018721;28;20137;-71
2022/03/28 09:34:36;;;;;;;24.55;14.30;;;;;;;-139.48;100.00;61774.03;5034120;28;20044;-73
2022/03/28 09:37:20;;;;;;;25.52;14.57;;;;;;;-139.48;100.00;61774.03;5019349;28;20115;-70
2022/03/28 09:40:36;;;;;;;22.33;13.80;;;;;;;-139.48;100.00;61774.03;5019654;28;20064;-71
2022/03/28 09:43:25;;;;;;;24.75;14.00;;;;;;;-139.48;100.00;61774.03;5033963;28;20111;-71
2022/03/28 09:46:09;;;;;;;22.10;14.07;;;;;;;-139.48;100.00;61774.03;5019066;28;20045;-71
2022/03/28 09:48:53;;;;;;;26.10;13.57;;;;;;;-139.48;100.00;61774.03;5019115;28;20132;-71
2022/03/28 09:51:37;;;;;;;21.38;12.25;;;;;;;-139.48;100.00;61774.03;5034179;28;20052;-71
2022/03/28 09:54:24;;;;;;;21.67;12.85;;;;;;;-139.48;100.00;61774.03;5019000;28;20420;-71
2022/03/28 09:57:09;;;;;;;18.73;12.18;;;;;;;-139.48;100.00;61774.03;5019094;28;20044;-72
2022/03/28 10:00:07;;;;;;;20.20;12.45;;;;;;;-139.48;100.00;61774.03;5018710;28;20068;-72
2022/03/28 10:02:52;;;;;;;22.90;13.05;;;;;;;-139.48;100.00;61774.03;5033779;28;20167;-72
2022/03/28 10:05:35;;;;;;;19.40;12.85;;;;;;;-139.48;100.00;61774.03;5032637;28;20048;-72
2022/03/28 10:08:19;;;;;;;20.25;12.90;;;;;;;-139.48;100.00;61774.03;5018499;28;20417;-72
2022/03/28 10:11:04;;;;;;;19.02;14.20;;;;;;;-139.48;100.00;61774.03;5005088;28;20094;-72
2022/03/28 10:13:48;;;;;;;24.38;14.43;;;;;;;-139.48;100.00;61774.03;5033617;28;20083;-71
2022/03/28 10:16:33;;;;;;;20.85;13.52;;;;;;;-139.48;100.00;61774.03;5018680;28;20115;-71
2022/03/28 10:19:17;;;;;;;20.80;12.25;;;;;;;-139.48;100.00;61774.03;5018619;28;20108;-72
2022/03/28 10:22:05;;;;;;;21.63;13.18;;;;;;;-139.48;100.00;61774.03;5018594;28;20052;-71
2022/03/28 10:24:49;;;;;;;20.90;13.40;;;;;;;-139.48;100.00;61774.03;5033538;28;20052;-71
2022/03/28 10:27:33;;;;;;;23.92;12.82;;;;;;;-139.48;100.00;61774.03;5018225;28;20099;-72
2022/03/28 10:30:21;;;;;;;24.25;13.45;;;;;;;-139.48;100.00;61774.03;5018522;28;20048;-71
2022/03/28 10:33:16;;;;;;;19.67;13.00;;;;;;;-139.48;100.00;61774.03;5018228;28;20052;-71
2022/03/28 10:36:06;;;;;;;21.48;12.27;;;;;;;-139.48;100.00;61774.03;5033633;28;20064;-72
2022/03/28 10:38:51;;;;;;;26.52;13.45;;;;;;;-139.48;100.00;61774.03;5018780;28;20166;-72
2022/03/28 10:41:40;;;;;;;19.80;13.45;;;;;;;-139.48;100.00;61774.03;5018325;28;20111;-72
2022/03/28 10:44:24;;;;;;;25.88;13.65;;;;;;;-139.48;100.00;61774.03;5018174;28;20045;-72
2022/03/28 10:47:08;;;;;;;25.73;14.15;;;;;;;-139.48;100.00;61774.03;5018425;28;20512;-71
2022/03/28 10:49:54;;;;;;;23.65;14.00;;;;;;;-139.48;100.00;61774.03;5018314;28;20563;-72
2022/03/28 10:52:39;;;;;;;20.60;13.27;;;;;;;-139.48;100.00;61774.03;5004165;28;20583;-72
2022/03/28 10:55:32;;;;;;;28.45;15.00;;;;;;;-139.48;100.00;61774.03;5018278;28;20133;-72
2022/03/28 10:58:18;;;;;;;24.70;14.27;;;;;;;-139.48;100.00;61774.03;5018001;28;20088;-72
2022/03/28 11:01:11;;;;;;;22.80;13.20;;;;;;;-139.48;100.00;61774.03;5018009;28;20096;-71
2022/03/28 11:04:00;;;;;;;25.67;12.85;;;;;;;-139.48;100.00;61774.03;5033230;28;20051;-72
2022/03/28 11:07:01;;;;;;;23.92;13.25;;;;;;;-139.48;100.00;61774.03;5032771;28;20045;-72
2022/03/28 11:09:50;;;;;;;29.45;13.88;;;;;;;-139.48;100.00;61774.03;5032755;28;20079;-72
2022/03/28 11:12:35;;;;;;;22.90;14.82;;;;;;;-139.48;100.00;61774.03;5032775;28;20103;-72
2022/03/28 11:15:22;;;;;;;19.23;13.30;;;;;;;-139.48;100.00;61774.03;5017795;28;20455;-72
2022/03/28 11:18:09;;;;;;;20.55;14.93;;;;;;;-139.48;100.00;61774.03;5020671;28;20547;-72
2022/03/28 11:20:54;;;;;;;21.67;13.30;;;;;;;-139.48;100.00;61774.03;5022543;28;20155;-72
2022/03/28 11:23:39;;;;;;;22.45;14.73;;;;;;;-139.48;100.00;61774.03;5036708;28;20048;-70
2022/03/28 11:26:24;;;;;;;24.70;14.77;;;;;;;-139.48;100.00;61774.03;5036555;28;20068;-70
2022/03/28 11:29:07;;;;;;;21.30;14.00;;;;;;;-139.48;100.00;61774.03;5021402;28;20080;-70
2022/03/28 11:31:52;;;;;;;22.17;14.32;;;;;;;-139.48;100.00;61774.03;5021793;28;20056;-70
2022/03/28 11:34:36;;;;;;;26.08;14.40;;;;;;;-139.48;100.00;61774.03;5021271;28;20098;-70
2022/03/28 11:37:26;;;;;;;25.80;14.65;;;;;;;-139.48;100.00;61774.03;5021388;28;20079;-72
2022/03/28 11:40:10;;;;;;;29.45;15.65;;;;;;;-139.48;100.00;61774.03;5007301;28;20049;-72
2022/03/28 11:42:56;;;;;;;25.10;14.23;;;;;;;-139.48;100.00;61774.03;5036569;28;20072;-72
2022/03/28 11:45:48;;;;;;;26.52;14.88;;;;;;;-139.48;100.00;61774.03;5036344;28;20123;-72
2022/03/28 11:48:32;;;;;;;19.55;13.18;;;;;;;-139.48;100.00;61774.03;5021331;28;20554;-72
2022/03/28 11:51:16;;;;;;;23.35;14.18;;;;;;;-139.48;100.00;61774.03;5021279;28;20052;-72
2022/03/28 11:54:04;;;;;;;27.88;14.32;;;;;;;-139.48;100.00;61774.03;5021022;28;20063;-72
2022/03/28 11:59:52;;;;;;;27.35;15.23;;;;;;;-139.48;100.00;61774.03;5036117;28;20119;-72
2022/03/28 12:02:46;;;;;;;30.20;14.77;;;;;;;-139.48;100.00;61774.03;5020868;28;20516;-72
2022/03/28 12:05:31;;;;;;;22.20;15.60;;;;;;;-139.48;100.00;61774.03;5020793;28;20107;-72
2022/03/28 12:08:17;;;;;;;31.30;16.23;;;;;;;-139.48;100.00;61774.03;5035657;28;20052;-72
2022/03/28 12:11:01;;;;;;;31.23;16.10;;;;;;;-139.48;100.00;61774.03;5020596;28;20068;-72
2022/03/28 12:13:46;;;;;;;27.10;15.70;;;;;;;-139.48;100.00;61774.03;5035540;28;20100;-72
2022/03/28 12:16:29;;;;;;;25.77;16.13;;;;;;;-139.48;100.00;61774.03;5020804;28;20044;-72
2022/03/28 12:19:17;;;;;;;25.55;15.38;;;;;;;-139.48;100.00;61774.03;5020787;28;20055;-72